sensor_id;sensor_type;location;lat;lon;timestamp;P1;P2;P0
64229;PMS5003;50547;49.498;0.092;2023-12-07T00:02:23;24;21;
64229;PMS5003;50547;49.498;0.092;2023-12-07T00:04:52;23;20;
64229;PMS5003;50547;49.498;0.092;2023-12-07T00:07:21;23;20;
64229;PMS5003;50547;49.498;0.092;2023-12-07T00:09:50;23;20;
64229;PMS5003;50547;49.498;0.092;2023-12-07T00:12:19;23;20;
64229;PMS5003;50547;49.498;0.092;2023-12-07T00:14:48;23;20;
64229;PMS5003;50547;49.498;0.092;2023-12-07T00:17:17;23;20;
64229;PMS5003;50547;49.498;0.092;2023-12-07T00:19:46;23;20;
64229;PMS5003;50547;49.498;0.092;2023-12-07T00:22:15;23;20;
64229;PMS5003;50547;49.498;0.092;2023-12-07T00:24:44;23;20;
64229;PMS5003;50547;49.498;0.092;2023-12-07T00:27:13;23;20;
64229;PMS5003;50547;49.498;0.092;2023-12-07T00:29:42;23;20;
64229;PMS5003;50547;49.498;0.092;2023-12-07T00:32:11;23;20;
64229;PMS5003;50547;49.498;0.092;2023-12-07T00:34:36;23;20;
64229;PMS5003;50547;49.498;0.092;2023-12-07T00:37:05;26;23;
64229;PMS5003;50547;49.498;0.092;2023-12-07T00:39:34;23;20;
64229;PMS5003;50547;49.498;0.092;2023-12-07T00:42:00;25;22;
64229;PMS5003;50547;49.498;0.092;2023-12-07T00:44:29;23;20;
64229;PMS5003;50547;49.498;0.092;2023-12-07T00:46:58;24;21;
64229;PMS5003;50547;49.498;0.092;2023-12-07T00:49:27;24;21;
64229;PMS5003;50547;49.498;0.092;2023-12-07T00:51:56;25;22;
64229;PMS5003;50547;49.498;0.092;2023-12-07T00:54:25;26;23;
64229;PMS5003;50547;49.498;0.092;2023-12-07T00:56:54;24;21;
64229;PMS5003;50547;49.498;0.092;2023-12-07T00:59:23;25;22;
64229;PMS5003;50547;49.498;0.092;2023-12-07T01:01:52;23;20;
64229;PMS5003;50547;49.498;0.092;2023-12-07T01:04:21;23;20;
64229;PMS5003;50547;49.498;0.092;2023-12-07T01:06:50;20;17;
64229;PMS5003;50547;49.498;0.092;2023-12-07T01:09:16;20;17;
64229;PMS5003;50547;49.498;0.092;2023-12-07T01:11:45;20;17;
64229;PMS5003;50547;49.498;0.092;2023-12-07T01:14:14;22;19;
64229;PMS5003;50547;49.498;0.092;2023-12-07T01:16:43;22;19;
64229;PMS5003;50547;49.498;0.092;2023-12-07T01:19:13;22;19;
64229;PMS5003;50547;49.498;0.092;2023-12-07T01:21:42;22;19;
64229;PMS5003;50547;49.498;0.092;2023-12-07T01:24:11;22;19;
64229;PMS5003;50547;49.498;0.092;2023-12-07T01:26:40;22;19;
64229;PMS5003;50547;49.498;0.092;2023-12-07T01:29:09;20;17;
64229;PMS5003;50547;49.498;0.092;2023-12-07T01:31:38;21;18;
64229;PMS5003;50547;49.498;0.092;2023-12-07T01:34:04;19;17;
64229;PMS5003;50547;49.498;0.092;2023-12-07T01:36:33;19;17;
64229;PMS5003;50547;49.498;0.092;2023-12-07T01:39:02;18;16;
64229;PMS5003;50547;49.498;0.092;2023-12-07T01:41:28;18;16;
64229;PMS5003;50547;49.498;0.092;2023-12-07T01:43:58;18;16;
64229;PMS5003;50547;49.498;0.092;2023-12-07T01:46:27;18;16;
64229;PMS5003;50547;49.498;0.092;2023-12-07T01:48:52;18;16;
64229;PMS5003;50547;49.498;0.092;2023-12-07T01:51:21;18;16;
64229;PMS5003;50547;49.498;0.092;2023-12-07T01:53:51;18;16;
64229;PMS5003;50547;49.498;0.092;2023-12-07T01:56:20;18;16;
64229;PMS5003;50547;49.498;0.092;2023-12-07T01:58:49;19;17;
64229;PMS5003;50547;49.498;0.092;2023-12-07T02:01:19;20;17;
64229;PMS5003;50547;49.498;0.092;2023-12-07T02:03:44;20;17;
64229;PMS5003;50547;49.498;0.092;2023-12-07T02:06:14;20;17;
64229;PMS5003;50547;49.498;0.092;2023-12-07T02:08:43;20;17;
64229;PMS5003;50547;49.498;0.092;2023-12-07T02:11:13;20;17;
64229;PMS5003;50547;49.498;0.092;2023-12-07T02:13:42;22;19;
64229;PMS5003;50547;49.498;0.092;2023-12-07T02:16:13;23;20;
64229;PMS5003;50547;49.498;0.092;2023-12-07T02:18:51;23;20;
64229;PMS5003;50547;49.498;0.092;2023-12-07T02:21:27;23;20;
64229;PMS5003;50547;49.498;0.092;2023-12-07T02:24:03;27;23;
64229;PMS5003;50547;49.498;0.092;2023-12-07T02:26:34;26;23;
64229;PMS5003;50547;49.498;0.092;2023-12-07T02:29:03;24;21;
64229;PMS5003;50547;49.498;0.092;2023-12-07T02:31:32;23;20;
64229;PMS5003;50547;49.498;0.092;2023-12-07T02:34:01;23;20;
64229;PMS5003;50547;49.498;0.092;2023-12-07T02:36:31;22;19;
64229;PMS5003;50547;49.498;0.092;2023-12-07T02:39:02;22;19;
64229;PMS5003;50547;49.498;0.092;2023-12-07T02:41:33;22;19;
64229;PMS5003;50547;49.498;0.092;2023-12-07T02:44:04;23;20;
64229;PMS5003;50547;49.498;0.092;2023-12-07T02:46:33;23;20;
64229;PMS5003;50547;49.498;0.092;2023-12-07T02:49:02;22;19;
64229;PMS5003;50547;49.498;0.092;2023-12-07T02:51:32;22;19;
64229;PMS5003;50547;49.498;0.092;2023-12-07T02:54:01;23;20;
64229;PMS5003;50547;49.498;0.092;2023-12-07T02:56:30;23;20;
64229;PMS5003;50547;49.498;0.092;2023-12-07T02:58:59;24;21;
64229;PMS5003;50547;49.498;0.092;2023-12-07T03:01:28;23;20;
64229;PMS5003;50547;49.498;0.092;2023-12-07T03:03:57;23;20;
64229;PMS5003;50547;49.498;0.092;2023-12-07T03:06:25;23;20;
64229;PMS5003;50547;49.498;0.092;2023-12-07T03:08:55;23;20;
64229;PMS5003;50547;49.498;0.092;2023-12-07T03:11:24;23;20;
64229;PMS5003;50547;49.498;0.092;2023-12-07T03:13:52;23;20;
64229;PMS5003;50547;49.498;0.092;2023-12-07T03:16:21;25;22;
64229;PMS5003;50547;49.498;0.092;2023-12-07T03:18:50;23;20;
64229;PMS5003;50547;49.498;0.092;2023-12-07T03:21:19;23;20;
64229;PMS5003;50547;49.498;0.092;2023-12-07T03:23:48;23;20;
64229;PMS5003;50547;49.498;0.092;2023-12-07T03:26:17;22;19;
64229;PMS5003;50547;49.498;0.092;2023-12-07T03:28:46;22;19;
64229;PMS5003;50547;49.498;0.092;2023-12-07T03:31:15;22;19;
64229;PMS5003;50547;49.498;0.092;2023-12-07T03:33:44;22;19;
64229;PMS5003;50547;49.498;0.092;2023-12-07T03:36:13;23;20;
64229;PMS5003;50547;49.498;0.092;2023-12-07T03:38:42;22;19;
64229;PMS5003;50547;49.498;0.092;2023-12-07T03:41:11;23;20;
64229;PMS5003;50547;49.498;0.092;2023-12-07T03:43:40;23;20;
64229;PMS5003;50547;49.498;0.092;2023-12-07T03:46:09;23;20;
64229;PMS5003;50547;49.498;0.092;2023-12-07T03:48:38;23;20;
64229;PMS5003;50547;49.498;0.092;2023-12-07T03:51:07;23;20;
64229;PMS5003;50547;49.498;0.092;2023-12-07T03:53:36;23;20;
64229;PMS5003;50547;49.498;0.092;2023-12-07T03:56:06;23;20;
64229;PMS5003;50547;49.498;0.092;2023-12-07T03:58:36;23;20;
64229;PMS5003;50547;49.498;0.092;2023-12-07T04:01:05;23;20;
64229;PMS5003;50547;49.498;0.092;2023-12-07T04:03:34;22;19;
64229;PMS5003;50547;49.498;0.092;2023-12-07T04:06:03;22;19;
64229;PMS5003;50547;49.498;0.092;2023-12-07T04:08:32;23;20;
64229;PMS5003;50547;49.498;0.092;2023-12-07T04:11:01;22;19;
64229;PMS5003;50547;49.498;0.092;2023-12-07T04:13:30;21;18;
64229;PMS5003;50547;49.498;0.092;2023-12-07T04:15:59;22;19;
64229;PMS5003;50547;49.498;0.092;2023-12-07T04:18:28;22;19;
64229;PMS5003;50547;49.498;0.092;2023-12-07T04:20:57;22;19;
64229;PMS5003;50547;49.498;0.092;2023-12-07T04:23:26;21;18;
64229;PMS5003;50547;49.498;0.092;2023-12-07T04:25:55;22;19;
64229;PMS5003;50547;49.498;0.092;2023-12-07T04:28:24;21;18;
64229;PMS5003;50547;49.498;0.092;2023-12-07T04:30:53;20;17;
64229;PMS5003;50547;49.498;0.092;2023-12-07T04:33:22;18;16;
64229;PMS5003;50547;49.498;0.092;2023-12-07T04:35:51;15;14;
64229;PMS5003;50547;49.498;0.092;2023-12-07T04:38:21;17;15;
64229;PMS5003;50547;49.498;0.092;2023-12-07T04:40:50;14;14;
64229;PMS5003;50547;49.498;0.092;2023-12-07T04:43:19;14;14;
64229;PMS5003;50547;49.498;0.092;2023-12-07T04:45:48;13;13;
64229;PMS5003;50547;49.498;0.092;2023-12-07T04:48:52;14;14;
64229;PMS5003;50547;49.498;0.092;2023-12-07T04:51:21;13;13;
64229;PMS5003;50547;49.498;0.092;2023-12-07T04:53:50;13;13;
64229;PMS5003;50547;49.498;0.092;2023-12-07T04:56:19;13;13;
64229;PMS5003;50547;49.498;0.092;2023-12-07T04:58:48;13;13;
64229;PMS5003;50547;49.498;0.092;2023-12-07T05:01:17;13;13;
64229;PMS5003;50547;49.498;0.092;2023-12-07T05:03:46;13;13;
64229;PMS5003;50547;49.498;0.092;2023-12-07T05:06:15;13;13;
64229;PMS5003;50547;49.498;0.092;2023-12-07T05:08:44;13;13;
64229;PMS5003;50547;49.498;0.092;2023-12-07T05:11:13;13;13;
64229;PMS5003;50547;49.498;0.092;2023-12-07T05:13:42;13;13;
64229;PMS5003;50547;49.498;0.092;2023-12-07T05:16:11;13;13;
64229;PMS5003;50547;49.498;0.092;2023-12-07T05:18:40;13;13;
64229;PMS5003;50547;49.498;0.092;2023-12-07T05:21:09;13;13;
64229;PMS5003;50547;49.498;0.092;2023-12-07T05:23:38;13;13;
64229;PMS5003;50547;49.498;0.092;2023-12-07T05:26:07;13;13;
64229;PMS5003;50547;49.498;0.092;2023-12-07T05:28:36;14;14;
64229;PMS5003;50547;49.498;0.092;2023-12-07T05:31:05;14;14;
64229;PMS5003;50547;49.498;0.092;2023-12-07T05:33:34;14;14;
64229;PMS5003;50547;49.498;0.092;2023-12-07T05:36:04;13;13;
64229;PMS5003;50547;49.498;0.092;2023-12-07T05:38:33;14;14;
64229;PMS5003;50547;49.498;0.092;2023-12-07T05:41:02;13;13;
64229;PMS5003;50547;49.498;0.092;2023-12-07T05:43:31;13;13;
64229;PMS5003;50547;49.498;0.092;2023-12-07T05:46:00;14;14;
64229;PMS5003;50547;49.498;0.092;2023-12-07T05:48:29;13;13;
64229;PMS5003;50547;49.498;0.092;2023-12-07T05:50:58;13;13;
64229;PMS5003;50547;49.498;0.092;2023-12-07T05:53:27;13;13;
64229;PMS5003;50547;49.498;0.092;2023-12-07T05:55:56;13;13;
64229;PMS5003;50547;49.498;0.092;2023-12-07T05:58:25;13;13;
64229;PMS5003;50547;49.498;0.092;2023-12-07T06:00:54;13;13;
64229;PMS5003;50547;49.498;0.092;2023-12-07T06:03:23;13;13;
64229;PMS5003;50547;49.498;0.092;2023-12-07T06:05:52;13;13;
64229;PMS5003;50547;49.498;0.092;2023-12-07T06:08:18;13;13;
64229;PMS5003;50547;49.498;0.092;2023-12-07T06:10:47;13;13;
64229;PMS5003;50547;49.498;0.092;2023-12-07T06:13:16;13;13;
64229;PMS5003;50547;49.498;0.092;2023-12-07T06:15:45;13;13;
64229;PMS5003;50547;49.498;0.092;2023-12-07T06:18:14;13;13;
64229;PMS5003;50547;49.498;0.092;2023-12-07T06:20:43;13;13;
64229;PMS5003;50547;49.498;0.092;2023-12-07T06:23:12;13;13;
64229;PMS5003;50547;49.498;0.092;2023-12-07T06:25:41;13;13;
64229;PMS5003;50547;49.498;0.092;2023-12-07T06:28:10;13;13;
64229;PMS5003;50547;49.498;0.092;2023-12-07T06:30:39;13;13;
64229;PMS5003;50547;49.498;0.092;2023-12-07T06:33:08;13;13;
64229;PMS5003;50547;49.498;0.092;2023-12-07T06:35:37;11;11;
64229;PMS5003;50547;49.498;0.092;2023-12-07T06:38:06;11;11;
64229;PMS5003;50547;49.498;0.092;2023-12-07T06:40:35;11;11;
64229;PMS5003;50547;49.498;0.092;2023-12-07T06:43:04;11;11;
64229;PMS5003;50547;49.498;0.092;2023-12-07T06:45:33;11;11;
64229;PMS5003;50547;49.498;0.092;2023-12-07T06:48:02;11;11;
64229;PMS5003;50547;49.498;0.092;2023-12-07T06:50:32;11;11;
64229;PMS5003;50547;49.498;0.092;2023-12-07T06:53:01;11;11;
64229;PMS5003;50547;49.498;0.092;2023-12-07T06:55:30;11;11;
64229;PMS5003;50547;49.498;0.092;2023-12-07T06:57:59;13;13;
64229;PMS5003;50547;49.498;0.092;2023-12-07T07:00:28;11;11;
64229;PMS5003;50547;49.498;0.092;2023-12-07T07:02:57;13;13;
64229;PMS5003;50547;49.498;0.092;2023-12-07T07:05:26;11;11;
64229;PMS5003;50547;49.498;0.092;2023-12-07T07:07:55;11;11;
64229;PMS5003;50547;49.498;0.092;2023-12-07T07:10:24;11;11;
64229;PMS5003;50547;49.498;0.092;2023-12-07T07:12:53;11;11;
64229;PMS5003;50547;49.498;0.092;2023-12-07T07:15:22;11;11;
64229;PMS5003;50547;49.498;0.092;2023-12-07T07:17:51;11;11;
64229;PMS5003;50547;49.498;0.092;2023-12-07T07:20:20;11;11;
64229;PMS5003;50547;49.498;0.092;2023-12-07T07:22:49;10;10;
64229;PMS5003;50547;49.498;0.092;2023-12-07T07:25:18;10;10;
64229;PMS5003;50547;49.498;0.092;2023-12-07T07:27:47;10;10;
64229;PMS5003;50547;49.498;0.092;2023-12-07T07:30:16;10;10;
64229;PMS5003;50547;49.498;0.092;2023-12-07T07:32:45;10;10;
64229;PMS5003;50547;49.498;0.092;2023-12-07T07:35:14;10;10;
64229;PMS5003;50547;49.498;0.092;2023-12-07T07:37:43;10;10;
64229;PMS5003;50547;49.498;0.092;2023-12-07T07:40:12;10;10;
64229;PMS5003;50547;49.498;0.092;2023-12-07T07:42:41;10;10;
64229;PMS5003;50547;49.498;0.092;2023-12-07T07:45:10;10;10;
64229;PMS5003;50547;49.498;0.092;2023-12-07T07:47:39;10;10;
64229;PMS5003;50547;49.498;0.092;2023-12-07T07:50:09;10;10;
64229;PMS5003;50547;49.498;0.092;2023-12-07T07:52:38;10;10;
64229;PMS5003;50547;49.498;0.092;2023-12-07T07:55:07;10;10;
64229;PMS5003;50547;49.498;0.092;2023-12-07T07:57:37;10;10;
64229;PMS5003;50547;49.498;0.092;2023-12-07T08:00:06;9;9;
64229;PMS5003;50547;49.498;0.092;2023-12-07T08:02:36;10;10;
64229;PMS5003;50547;49.498;0.092;2023-12-07T08:05:05;10;10;
64229;PMS5003;50547;49.498;0.092;2023-12-07T08:07:35;10;10;
64229;PMS5003;50547;49.498;0.092;2023-12-07T08:10:04;10;10;
64229;PMS5003;50547;49.498;0.092;2023-12-07T08:12:34;10;10;
64229;PMS5003;50547;49.498;0.092;2023-12-07T08:15:04;9;9;
64229;PMS5003;50547;49.498;0.092;2023-12-07T08:17:34;9;9;
64229;PMS5003;50547;49.498;0.092;2023-12-07T08:20:03;8;8;
64229;PMS5003;50547;49.498;0.092;2023-12-07T08:22:34;10;10;
64229;PMS5003;50547;49.498;0.092;2023-12-07T08:25:02;10;10;
64229;PMS5003;50547;49.498;0.092;2023-12-07T08:27:31;8;8;
64229;PMS5003;50547;49.498;0.092;2023-12-07T08:29:57;8;8;
64229;PMS5003;50547;49.498;0.092;2023-12-07T08:32:26;9;9;
64229;PMS5003;50547;49.498;0.092;2023-12-07T08:34:55;10;10;
64229;PMS5003;50547;49.498;0.092;2023-12-07T08:37:25;10;10;
64229;PMS5003;50547;49.498;0.092;2023-12-07T08:39:54;10;10;
64229;PMS5003;50547;49.498;0.092;2023-12-07T08:42:23;9;9;
64229;PMS5003;50547;49.498;0.092;2023-12-07T08:44:52;9;9;
64229;PMS5003;50547;49.498;0.092;2023-12-07T08:47:21;8;8;
64229;PMS5003;50547;49.498;0.092;2023-12-07T08:49:50;9;9;
64229;PMS5003;50547;49.498;0.092;2023-12-07T08:52:19;9;9;
64229;PMS5003;50547;49.498;0.092;2023-12-07T08:54:48;8;8;
64229;PMS5003;50547;49.498;0.092;2023-12-07T08:57:17;8;8;
64229;PMS5003;50547;49.498;0.092;2023-12-07T08:59:46;8;8;
64229;PMS5003;50547;49.498;0.092;2023-12-07T09:02:16;8;8;
64229;PMS5003;50547;49.498;0.092;2023-12-07T09:04:45;10;10;
64229;PMS5003;50547;49.498;0.092;2023-12-07T09:07:14;8;8;
64229;PMS5003;50547;49.498;0.092;2023-12-07T09:09:43;8;8;
64229;PMS5003;50547;49.498;0.092;2023-12-07T09:12:12;8;8;
64229;PMS5003;50547;49.498;0.092;2023-12-07T09:14:41;8;8;
64229;PMS5003;50547;49.498;0.092;2023-12-07T09:17:10;8;8;
64229;PMS5003;50547;49.498;0.092;2023-12-07T09:19:39;9;9;
64229;PMS5003;50547;49.498;0.092;2023-12-07T09:22:08;9;9;
64229;PMS5003;50547;49.498;0.092;2023-12-07T09:24:37;9;9;
64229;PMS5003;50547;49.498;0.092;2023-12-07T09:27:06;10;10;
64229;PMS5003;50547;49.498;0.092;2023-12-07T09:29:35;10;10;
64229;PMS5003;50547;49.498;0.092;2023-12-07T09:32:05;10;10;
64229;PMS5003;50547;49.498;0.092;2023-12-07T09:34:34;8;8;
64229;PMS5003;50547;49.498;0.092;2023-12-07T09:37:05;10;10;
64229;PMS5003;50547;49.498;0.092;2023-12-07T09:39:34;9;9;
64229;PMS5003;50547;49.498;0.092;2023-12-07T09:42:04;10;10;
64229;PMS5003;50547;49.498;0.092;2023-12-07T09:44:33;10;10;
64229;PMS5003;50547;49.498;0.092;2023-12-07T09:47:02;10;10;
64229;PMS5003;50547;49.498;0.092;2023-12-07T09:49:32;10;10;
64229;PMS5003;50547;49.498;0.092;2023-12-07T09:52:01;9;9;
64229;PMS5003;50547;49.498;0.092;2023-12-07T09:54:32;9;9;
64229;PMS5003;50547;49.498;0.092;2023-12-07T09:57:02;8;8;
64229;PMS5003;50547;49.498;0.092;2023-12-07T09:59:32;10;10;
64229;PMS5003;50547;49.498;0.092;2023-12-07T10:02:01;10;10;
64229;PMS5003;50547;49.498;0.092;2023-12-07T10:04:27;8;8;
64229;PMS5003;50547;49.498;0.092;2023-12-07T10:06:56;8;8;
64229;PMS5003;50547;49.498;0.092;2023-12-07T10:09:25;9;9;
64229;PMS5003;50547;49.498;0.092;2023-12-07T10:12:01;8;8;
64229;PMS5003;50547;49.498;0.092;2023-12-07T10:14:31;8;8;
64229;PMS5003;50547;49.498;0.092;2023-12-07T10:17:00;8;8;
64229;PMS5003;50547;49.498;0.092;2023-12-07T10:19:30;9;9;
64229;PMS5003;50547;49.498;0.092;2023-12-07T10:21:59;8;8;
64229;PMS5003;50547;49.498;0.092;2023-12-07T10:24:28;8;8;
64229;PMS5003;50547;49.498;0.092;2023-12-07T10:26:57;8;8;
64229;PMS5003;50547;49.498;0.092;2023-12-07T10:29:27;8;8;
64229;PMS5003;50547;49.498;0.092;2023-12-07T10:32:21;8;8;
64229;PMS5003;50547;49.498;0.092;2023-12-07T10:34:50;8;8;
64229;PMS5003;50547;49.498;0.092;2023-12-07T10:37:20;8;8;
64229;PMS5003;50547;49.498;0.092;2023-12-07T10:39:49;8;8;
64229;PMS5003;50547;49.498;0.092;2023-12-07T10:42:18;9;9;
64229;PMS5003;50547;49.498;0.092;2023-12-07T10:44:53;7;7;
64229;PMS5003;50547;49.498;0.092;2023-12-07T10:47:32;7;7;
64229;PMS5003;50547;49.498;0.092;2023-12-07T10:50:06;8;8;
64229;PMS5003;50547;49.498;0.092;2023-12-07T10:52:37;7;7;
64229;PMS5003;50547;49.498;0.092;2023-12-07T10:55:14;8;8;
64229;PMS5003;50547;49.498;0.092;2023-12-07T10:57:45;8;8;
64229;PMS5003;50547;49.498;0.092;2023-12-07T11:00:15;7;7;
64229;PMS5003;50547;49.498;0.092;2023-12-07T11:02:45;8;8;
64229;PMS5003;50547;49.498;0.092;2023-12-07T11:05:15;7;7;
64229;PMS5003;50547;49.498;0.092;2023-12-07T11:07:47;8;8;
64229;PMS5003;50547;49.498;0.092;2023-12-07T11:10:24;8;8;
64229;PMS5003;50547;49.498;0.092;2023-12-07T11:13:00;8;8;
64229;PMS5003;50547;49.498;0.092;2023-12-07T11:15:39;8;8;
64229;PMS5003;50547;49.498;0.092;2023-12-07T11:18:20;7;7;
64229;PMS5003;50547;49.498;0.092;2023-12-07T11:20:49;8;8;
64229;PMS5003;50547;49.498;0.092;2023-12-07T11:23:19;7;7;
64229;PMS5003;50547;49.498;0.092;2023-12-07T11:25:49;8;8;
64229;PMS5003;50547;49.498;0.092;2023-12-07T11:28:33;8;8;
64229;PMS5003;50547;49.498;0.092;2023-12-07T11:31:03;8;8;
64229;PMS5003;50547;49.498;0.092;2023-12-07T11:33:37;7;7;
64229;PMS5003;50547;49.498;0.092;2023-12-07T11:36:07;7;7;
64229;PMS5003;50547;49.498;0.092;2023-12-07T11:38:38;7;7;
64229;PMS5003;50547;49.498;0.092;2023-12-07T11:41:44;8;8;
64229;PMS5003;50547;49.498;0.092;2023-12-07T11:44:13;8;8;
64229;PMS5003;50547;49.498;0.092;2023-12-07T11:46:42;8;8;
64229;PMS5003;50547;49.498;0.092;2023-12-07T11:49:11;9;9;
64229;PMS5003;50547;49.498;0.092;2023-12-07T11:51:41;8;8;
64229;PMS5003;50547;49.498;0.092;2023-12-07T11:54:10;9;9;
64229;PMS5003;50547;49.498;0.092;2023-12-07T11:57:08;9;9;
64229;PMS5003;50547;49.498;0.092;2023-12-07T11:59:37;8;8;
64229;PMS5003;50547;49.498;0.092;2023-12-07T12:02:07;8;8;
64229;PMS5003;50547;49.498;0.092;2023-12-07T12:04:36;8;8;
64229;PMS5003;50547;49.498;0.092;2023-12-07T12:07:05;8;8;
64229;PMS5003;50547;49.498;0.092;2023-12-07T12:09:34;8;8;
64229;PMS5003;50547;49.498;0.092;2023-12-07T12:12:03;8;8;
64229;PMS5003;50547;49.498;0.092;2023-12-07T12:14:33;30;26;
64229;PMS5003;50547;49.498;0.092;2023-12-07T12:17:02;10;10;
64229;PMS5003;50547;49.498;0.092;2023-12-07T12:19:29;10;10;
64229;PMS5003;50547;49.498;0.092;2023-12-07T12:22:01;11;11;
64229;PMS5003;50547;49.498;0.092;2023-12-07T12:24:30;8;8;
64229;PMS5003;50547;49.498;0.092;2023-12-07T12:27:00;8;8;
64229;PMS5003;50547;49.498;0.092;2023-12-07T12:29:29;7;7;
64229;PMS5003;50547;49.498;0.092;2023-12-07T12:31:59;8;8;
64229;PMS5003;50547;49.498;0.092;2023-12-07T12:34:29;8;8;
64229;PMS5003;50547;49.498;0.092;2023-12-07T12:36:58;7;7;
64229;PMS5003;50547;49.498;0.092;2023-12-07T12:39:27;7;7;
64229;PMS5003;50547;49.498;0.092;2023-12-07T12:41:56;7;7;
64229;PMS5003;50547;49.498;0.092;2023-12-07T12:44:26;7;7;
64229;PMS5003;50547;49.498;0.092;2023-12-07T12:46:55;7;7;
64229;PMS5003;50547;49.498;0.092;2023-12-07T12:49:21;8;8;
64229;PMS5003;50547;49.498;0.092;2023-12-07T12:51:50;7;7;
64229;PMS5003;50547;49.498;0.092;2023-12-07T12:54:20;7;7;
64229;PMS5003;50547;49.498;0.092;2023-12-07T12:56:49;6;6;
64229;PMS5003;50547;49.498;0.092;2023-12-07T12:59:18;6;6;
64229;PMS5003;50547;49.498;0.092;2023-12-07T13:01:46;6;6;
64229;PMS5003;50547;49.498;0.092;2023-12-07T13:04:15;7;7;
64229;PMS5003;50547;49.498;0.092;2023-12-07T13:06:44;5;5;
64229;PMS5003;50547;49.498;0.092;2023-12-07T13:09:13;4;4;
64229;PMS5003;50547;49.498;0.092;2023-12-07T13:11:42;5;5;
64229;PMS5003;50547;49.498;0.092;2023-12-07T13:14:11;5;5;
64229;PMS5003;50547;49.498;0.092;2023-12-07T13:16:41;5;5;
64229;PMS5003;50547;49.498;0.092;2023-12-07T13:19:10;5;5;
64229;PMS5003;50547;49.498;0.092;2023-12-07T13:21:39;5;5;
64229;PMS5003;50547;49.498;0.092;2023-12-07T13:24:08;4;4;
64229;PMS5003;50547;49.498;0.092;2023-12-07T13:26:37;4;4;
64229;PMS5003;50547;49.498;0.092;2023-12-07T13:29:06;5;5;
64229;PMS5003;50547;49.498;0.092;2023-12-07T13:31:35;5;5;
64229;PMS5003;50547;49.498;0.092;2023-12-07T13:34:04;6;6;
64229;PMS5003;50547;49.498;0.092;2023-12-07T13:36:33;6;6;
64229;PMS5003;50547;49.498;0.092;2023-12-07T13:39:02;10;10;
64229;PMS5003;50547;49.498;0.092;2023-12-07T13:41:32;5;5;
64229;PMS5003;50547;49.498;0.092;2023-12-07T13:44:01;5;5;
64229;PMS5003;50547;49.498;0.092;2023-12-07T13:46:30;5;5;
64229;PMS5003;50547;49.498;0.092;2023-12-07T13:48:59;5;5;
64229;PMS5003;50547;49.498;0.092;2023-12-07T13:51:28;5;5;
64229;PMS5003;50547;49.498;0.092;2023-12-07T13:53:57;4;4;
64229;PMS5003;50547;49.498;0.092;2023-12-07T13:56:26;5;5;
64229;PMS5003;50547;49.498;0.092;2023-12-07T13:58:55;5;5;
64229;PMS5003;50547;49.498;0.092;2023-12-07T14:01:24;5;5;
64229;PMS5003;50547;49.498;0.092;2023-12-07T14:03:53;6;6;
64229;PMS5003;50547;49.498;0.092;2023-12-07T14:06:23;5;5;
64229;PMS5003;50547;49.498;0.092;2023-12-07T14:08:52;5;5;
64229;PMS5003;50547;49.498;0.092;2023-12-07T14:11:21;5;5;
64229;PMS5003;50547;49.498;0.092;2023-12-07T14:13:50;6;6;
64229;PMS5003;50547;49.498;0.092;2023-12-07T14:16:20;5;5;
64229;PMS5003;50547;49.498;0.092;2023-12-07T14:18:49;5;5;
64229;PMS5003;50547;49.498;0.092;2023-12-07T14:21:19;6;6;
64229;PMS5003;50547;49.498;0.092;2023-12-07T14:23:48;4;4;
64229;PMS5003;50547;49.498;0.092;2023-12-07T14:26:17;7;7;
64229;PMS5003;50547;49.498;0.092;2023-12-07T14:28:47;6;6;
64229;PMS5003;50547;49.498;0.092;2023-12-07T14:31:16;6;6;
64229;PMS5003;50547;49.498;0.092;2023-12-07T14:33:45;5;5;
64229;PMS5003;50547;49.498;0.092;2023-12-07T14:36:14;5;5;
64229;PMS5003;50547;49.498;0.092;2023-12-07T14:38:42;5;5;
64229;PMS5003;50547;49.498;0.092;2023-12-07T14:41:11;5;5;
64229;PMS5003;50547;49.498;0.092;2023-12-07T14:43:40;5;5;
64229;PMS5003;50547;49.498;0.092;2023-12-07T14:46:09;5;5;
64229;PMS5003;50547;49.498;0.092;2023-12-07T14:48:38;6;6;
64229;PMS5003;50547;49.498;0.092;2023-12-07T14:51:07;7;7;
64229;PMS5003;50547;49.498;0.092;2023-12-07T14:53:37;6;6;
64229;PMS5003;50547;49.498;0.092;2023-12-07T14:56:07;7;7;
64229;PMS5003;50547;49.498;0.092;2023-12-07T14:58:36;6;6;
64229;PMS5003;50547;49.498;0.092;2023-12-07T15:01:05;5;5;
64229;PMS5003;50547;49.498;0.092;2023-12-07T15:03:34;7;7;
64229;PMS5003;50547;49.498;0.092;2023-12-07T15:06:04;6;6;
64229;PMS5003;50547;49.498;0.092;2023-12-07T15:08:33;7;7;
64229;PMS5003;50547;49.498;0.092;2023-12-07T15:11:02;7;7;
64229;PMS5003;50547;49.498;0.092;2023-12-07T15:13:32;6;6;
64229;PMS5003;50547;49.498;0.092;2023-12-07T15:16:00;6;6;
64229;PMS5003;50547;49.498;0.092;2023-12-07T15:18:30;7;7;
64229;PMS5003;50547;49.498;0.092;2023-12-07T15:20:59;7;7;
64229;PMS5003;50547;49.498;0.092;2023-12-07T15:23:28;6;6;
64229;PMS5003;50547;49.498;0.092;2023-12-07T15:25:57;7;7;
64229;PMS5003;50547;49.498;0.092;2023-12-07T15:28:27;7;7;
64229;PMS5003;50547;49.498;0.092;2023-12-07T15:30:56;7;7;
64229;PMS5003;50547;49.498;0.092;2023-12-07T15:33:25;6;6;
64229;PMS5003;50547;49.498;0.092;2023-12-07T15:35:54;7;7;
64229;PMS5003;50547;49.498;0.092;2023-12-07T15:38:23;7;7;
64229;PMS5003;50547;49.498;0.092;2023-12-07T15:40:52;7;7;
64229;PMS5003;50547;49.498;0.092;2023-12-07T15:43:22;7;7;
64229;PMS5003;50547;49.498;0.092;2023-12-07T15:45:51;7;7;
64229;PMS5003;50547;49.498;0.092;2023-12-07T15:48:20;8;8;
64229;PMS5003;50547;49.498;0.092;2023-12-07T15:50:49;8;8;
64229;PMS5003;50547;49.498;0.092;2023-12-07T15:53:18;8;8;
64229;PMS5003;50547;49.498;0.092;2023-12-07T15:55:47;8;8;
64229;PMS5003;50547;49.498;0.092;2023-12-07T15:58:16;8;8;
64229;PMS5003;50547;49.498;0.092;2023-12-07T16:00:45;8;8;
64229;PMS5003;50547;49.498;0.092;2023-12-07T16:03:15;9;9;
64229;PMS5003;50547;49.498;0.092;2023-12-07T16:05:44;8;8;
64229;PMS5003;50547;49.498;0.092;2023-12-07T16:08:13;8;8;
64229;PMS5003;50547;49.498;0.092;2023-12-07T16:10:42;8;8;
64229;PMS5003;50547;49.498;0.092;2023-12-07T16:13:11;8;8;
64229;PMS5003;50547;49.498;0.092;2023-12-07T16:15:40;8;8;
64229;PMS5003;50547;49.498;0.092;2023-12-07T16:18:09;8;8;
64229;PMS5003;50547;49.498;0.092;2023-12-07T16:20:38;8;8;
64229;PMS5003;50547;49.498;0.092;2023-12-07T16:23:08;8;8;
64229;PMS5003;50547;49.498;0.092;2023-12-07T16:25:37;7;7;
64229;PMS5003;50547;49.498;0.092;2023-12-07T16:28:06;7;7;
64229;PMS5003;50547;49.498;0.092;2023-12-07T16:30:35;8;8;
64229;PMS5003;50547;49.498;0.092;2023-12-07T16:33:04;8;8;
64229;PMS5003;50547;49.498;0.092;2023-12-07T16:35:33;7;7;
64229;PMS5003;50547;49.498;0.092;2023-12-07T16:38:02;8;8;
64229;PMS5003;50547;49.498;0.092;2023-12-07T16:40:31;9;9;
64229;PMS5003;50547;49.498;0.092;2023-12-07T16:43:00;8;8;
64229;PMS5003;50547;49.498;0.092;2023-12-07T16:45:29;8;8;
64229;PMS5003;50547;49.498;0.092;2023-12-07T16:47:58;8;8;
64229;PMS5003;50547;49.498;0.092;2023-12-07T16:50:28;8;8;